Time;durP1;ratioP1;P1;durP2;ratioP2;P2;SDS_P1;SDS_P2;PMS_P1;PMS_P2;Temp;Humidity;BMP_temperature;BMP_pressure;BME280_temperature;BME280_humidity;BME280_pressure;Samples;Min_cycle;Max_cycle;Signal;HPM_P1;HPM_P2
2022/01/24 00:04:08;;;;;;;12.43;6.43;;;6.90;22.60;;;;;;10286253;28;84064;-50
2022/01/24 00:09:10;;;;;;;15.90;7.07;;;6.90;24.00;;;;;;10286035;28;84769;-50
2022/01/24 00:30:10;;;;;;;19.33;6.88;;;6.90;24.70;;;;;;10285398;28;84161;-50
2022/01/24 00:35:11;;;;;;;15.68;6.88;;;6.90;3.50;;;;;;10271423;28;84973;-49
2022/01/24 00:40:12;;;;;;;15.40;7.03;;;7.00;1.00;;;;;;10265191;28;84225;-52
2022/01/24 00:45:31;;;;;;;12.73;6.53;;;7.00;1.00;;;;;;10265991;28;84415;-47
2022/01/24 00:55:52;;;;;;;15.05;7.00;;;6.90;1.00;;;;;;10292565;28;84137;-49
2022/01/24 01:00:54;;;;;;;14.98;5.72;;;6.90;1.00;;;;;;10291618;28;84119;-49
2022/01/24 01:21:40;;;;;;;15.95;5.55;;;6.90;1.00;;;;;;10290286;28;84752;-48
2022/01/24 01:26:47;;;;;;;15.40;5.95;;;6.90;1.00;;;;;;10291013;28;84960;-46
2022/01/24 01:53:03;;;;;;;16.08;6.53;;;6.90;7.00;;;;;;10289287;28;84786;-48
2022/01/24 01:58:10;;;;;;;13.02;5.80;;;6.90;5.80;;;;;;10290082;28;84110;-47
2022/01/24 02:03:12;;;;;;;15.95;6.18;;;6.90;1.00;;;;;;10287958;28;84277;-48
2022/01/24 02:08:13;;;;;;;13.95;5.85;;;7.00;5.60;;;;;;10263244;28;84964;-50
2022/01/24 02:13:14;;;;;;;11.68;5.30;;;6.90;16.00;;;;;;10275089;28;87203;-49
2022/01/24 02:28:40;;;;;;;9.70;4.50;;;6.90;1.00;;;;;;10289046;28;84852;-46
2022/01/24 02:33:44;;;;;;;9.40;4.50;;;6.90;1.00;;;;;;10289425;28;84950;-47
2022/01/24 02:49:20;;;;;;;9.40;4.53;;;7.00;1.00;;;;;;10288131;28;84141;-50
2022/01/24 02:54:22;;;;;;;10.77;4.40;;;7.00;1.00;;;;;;10288786;28;84628;-51
2022/01/24 02:59:24;;;;;;;7.55;3.95;;;6.90;1.00;;;;;;10289612;28;84914;-47
2022/01/24 03:04:25;;;;;;;13.68;4.60;;;6.90;1.00;;;;;;10288242;28;84080;-46
2022/01/24 03:09:26;;;;;;;9.40;4.70;;;6.90;1.00;;;;;;10269591;28;84700;-48
2022/01/24 03:14:30;;;;;;;10.65;4.80;;;7.00;1.00;;;;;;10267407;28;84164;-48
2022/01/24 03:19:31;;;;;;;9.20;4.53;;;7.00;1.00;;;;;;10279112;28;85037;-48
2022/01/24 03:24:32;;;;;;;9.95;5.00;;;6.90;1.00;;;;;;10270004;28;84928;-47
2022/01/24 03:29:33;;;;;;;8.77;4.30;;;6.90;1.00;;;;;;10278397;28;84126;-47
2022/01/24 03:34:33;;;;;;;9.50;4.55;;;6.90;1.00;;;;;;10274211;28;85065;-46
2022/01/24 03:39:34;;;;;;;9.95;5.00;;;6.90;1.00;;;;;;10266861;28;84175;-45
2022/01/24 03:44:35;;;;;;;11.85;4.97;;;6.90;1.00;;;;;;10275834;28;84200;-46
2022/01/24 03:49:45;;;;;;;6.90;3.72;;;6.90;1.00;;;;;;10269449;28;84193;-46
2022/01/24 03:54:48;;;;;;;6.32;3.88;;;6.90;1.00;;;;;;10246962;28;84906;-46
2022/01/24 03:59:50;;;;;;;10.05;3.95;;;6.90;1.00;;;;;;10276300;28;84925;-46
2022/01/24 04:04:51;;;;;;;10.15;4.38;;;6.90;1.00;;;;;;10278218;28;85401;-46
2022/01/24 04:09:52;;;;;;;11.13;4.18;;;6.90;1.00;;;;;;10275729;28;84441;-46
2022/01/24 04:15:07;;;;;;;8.48;4.32;;;6.90;1.00;;;;;;10260367;28;84920;-47
2022/01/24 04:25:27;;;;;;;10.60;4.60;;;6.90;1.00;;;;;;10264744;28;84218;-46
2022/01/24 04:30:28;;;;;;;11.25;5.50;;;6.80;1.00;;;;;;10276952;28;84055;-46
2022/01/24 04:35:28;;;;;;;8.63;4.63;;;6.80;1.00;;;;;;10264187;28;84755;-46
2022/01/24 04:40:29;;;;;;;8.02;4.38;;;6.90;1.00;;;;;;10264722;28;84941;-45
2022/01/24 04:45:40;;;;;;;6.15;3.80;;;6.90;1.00;;;;;;10270816;28;84010;-47
2022/01/24 04:51:03;;;;;;;8.13;4.72;;;6.90;1.00;;;;;;10285244;28;84117;-46
2022/01/24 04:56:04;;;;;;;10.50;4.68;;;6.90;1.00;;;;;;10285684;28;84946;-49
2022/01/24 05:01:05;;;;;;;10.68;4.65;;;6.90;1.00;;;;;;10285012;28;84802;-45
2022/01/24 05:06:05;;;;;;;8.63;4.97;;;6.80;1.00;;;;;;10283542;28;84974;-46
2022/01/24 05:11:10;;;;;;;10.20;5.05;;;6.80;1.00;;;;;;10274102;28;84288;-46
2022/01/24 05:23:24;;;;;;;11.65;5.35;;;6.80;1.00;;;;;;10241130;28;84851;-48
2022/01/24 05:26:54;;;;;;;12.73;5.82;;;6.80;1.00;;;;;;10240653;28;84401;-48
2022/01/24 05:31:55;;;;;;;11.07;5.00;;;6.60;1.00;;;;;;10248453;28;85796;-49
2022/01/24 05:36:56;;;;;;;13.00;5.05;;;6.60;1.00;;;;;;10250640;28;84988;-46
2022/01/24 05:41:57;;;;;;;10.02;5.20;;;6.60;1.00;;;;;;10268292;23;86049;-55
2022/01/24 05:46:58;;;;;;;9.48;5.65;;;6.60;1.00;;;;;;10239201;28;86142;-54
2022/01/24 05:51:58;;;;;;;11.25;5.65;;;6.60;1.00;;;;;;10282419;28;84144;-56
2022/01/24 05:56:59;;;;;;;11.07;5.35;;;6.70;1.00;;;;;;10289009;28;87110;-58
2022/01/24 06:02:00;;;;;;;10.27;5.27;;;6.70;1.00;;;;;;10280547;28;85721;-51
2022/01/24 06:07:00;;;;;;;11.13;6.15;;;6.70;1.00;;;;;;10245697;28;84705;-54
2022/01/24 06:12:01;;;;;;;12.18;5.45;;;6.60;1.00;;;;;;10249664;28;84119;-51
2022/01/24 06:17:02;;;;;;;11.63;5.70;;;6.60;1.00;;;;;;10247167;28;84854;-52
2022/01/24 06:22:03;;;;;;;11.23;5.60;;;6.60;1.00;;;;;;10247368;28;85215;-58
2022/01/24 06:27:04;;;;;;;12.27;6.30;;;6.50;1.00;;;;;;10245887;28;86230;-51
2022/01/24 06:32:05;;;;;;;15.80;6.75;;;6.50;1.00;;;;;;10245940;28;84876;-59
2022/01/24 06:37:06;;;;;;;14.73;7.45;;;6.60;1.00;;;;;;10247284;28;84379;-57
2022/01/24 06:42:22;;;;;;;16.98;7.15;;;6.60;1.00;;;;;;10245993;28;85113;-63
2022/01/24 06:47:24;;;;;;;12.10;6.50;;;6.60;1.00;;;;;;10230142;28;84655;-63
2022/01/24 06:52:24;;;;;;;18.60;7.65;;;6.70;1.00;;;;;;10245378;28;84515;-57
2022/01/24 06:57:25;;;;;;;11.75;6.75;;;6.70;1.00;;;;;;10263147;28;84302;-61
2022/01/24 07:02:26;;;;;;;13.65;6.72;;;6.50;1.00;;;;;;10280959;28;84539;-59
2022/01/24 07:07:28;;;;;;;18.42;8.13;;;6.60;1.00;;;;;;10258021;28;84248;-57
2022/01/24 07:12:29;;;;;;;15.93;7.63;;;6.70;1.00;;;;;;10249024;28;85068;-57
2022/01/24 07:17:46;;;;;;;15.13;8.02;;;6.80;1.00;;;;;;10244988;28;84997;-59
2022/01/24 07:22:47;;;;;;;18.27;8.50;;;6.80;1.00;;;;;;10245416;28;84993;-58
2022/01/24 07:27:48;;;;;;;16.40;7.80;;;6.80;1.00;;;;;;10246728;28;84074;-59
2022/01/24 07:32:49;;;;;;;12.63;5.88;;;6.80;1.00;;;;;;10247296;28;84894;-59
2022/01/24 07:37:50;;;;;;;15.98;7.05;;;6.70;1.00;;;;;;10245769;28;84916;-61
2022/01/24 07:47:52;;;;;;;15.52;8.15;;;6.70;1.00;;;;;;10248638;28;84021;-58
2022/01/24 07:52:55;;;;;;;17.40;8.63;;;6.70;1.00;;;;;;10245784;28;85957;-56
2022/01/24 07:57:56;;;;;;;18.30;8.13;;;6.80;1.00;;;;;;10245588;28;84912;-56
2022/01/24 08:02:59;;;;;;;17.27;8.18;;;6.80;1.00;;;;;;10248819;28;84882;-56
2022/01/24 08:08:01;;;;;;;18.77;8.48;;;6.60;1.00;;;;;;10245906;28;84100;-58
2022/01/24 08:13:02;;;;;;;13.20;6.65;;;6.60;1.00;;;;;;10244134;28;85920;-56
2022/01/24 08:18:03;;;;;;;10.38;5.55;;;6.60;1.00;;;;;;10243164;28;84949;-56
2022/01/24 08:23:05;;;;;;;13.57;6.43;;;6.60;1.00;;;;;;10246346;28;84802;-64
2022/01/24 08:28:06;;;;;;;9.07;5.65;;;6.60;1.00;;;;;;10245973;28;84808;-61
2022/01/24 08:33:07;;;;;;;16.10;7.63;;;6.60;1.00;;;;;;10245261;28;84395;-59
2022/01/24 08:38:07;;;;;;;13.00;6.78;;;6.60;1.00;;;;;;10243085;28;84119;-55
2022/01/24 08:43:09;;;;;;;12.68;7.13;;;6.80;1.00;;;;;;10245634;28;84975;-64
2022/01/24 08:48:11;;;;;;;15.70;7.28;;;6.80;1.00;;;;;;10243463;28;87510;-66
2022/01/24 08:53:12;;;;;;;17.77;7.13;;;6.90;1.00;;;;;;10244919;28;85015;-58
2022/01/24 08:58:14;;;;;;;14.82;6.72;;;6.80;1.00;;;;;;10244109;28;85081;-55
2022/01/24 09:03:15;;;;;;;13.48;6.60;;;6.90;1.00;;;;;;10243809;28;84099;-61
2022/01/24 09:08:16;;;;;;;12.23;6.35;;;6.80;1.00;;;;;;10247457;28;84531;-58
2022/01/24 09:13:19;;;;;;;12.05;6.60;;;6.90;1.00;;;;;;10250466;28;84844;-59
2022/01/24 09:18:19;;;;;;;10.13;5.32;;;6.90;1.00;;;;;;10249220;28;84932;-55
2022/01/24 09:23:22;;;;;;;9.75;5.60;;;6.80;1.00;;;;;;10251378;28;84147;-65
2022/01/24 09:28:23;;;;;;;9.80;5.05;;;6.90;1.00;;;;;;10249982;28;84104;-60
2022/01/24 09:33:25;;;;;;;7.88;4.53;;;6.90;1.00;;;;;;10249627;28;84740;-56
2022/01/24 09:38:29;;;;;;;6.93;4.03;;;7.00;1.00;;;;;;10249866;28;84009;-57
2022/01/24 09:43:31;;;;;;;7.90;4.65;;;6.90;1.00;;;;;;10249152;28;87346;-54
2022/01/24 09:48:32;;;;;;;9.25;4.93;;;6.90;1.00;;;;;;10249800;28;85144;-56
2022/01/24 09:53:33;;;;;;;8.02;4.38;;;7.00;1.00;;;;;;10249584;28;87091;-58
2022/01/24 09:58:36;;;;;;;8.30;4.30;;;6.70;1.00;;;;;;10247809;28;87004;-58
2022/01/24 10:03:37;;;;;;;6.53;3.85;;;6.80;1.00;;;;;;10250425;28;84183;-53
2022/01/24 10:08:38;;;;;;;7.63;4.55;;;6.90;1.00;;;;;;10248983;28;84180;-62
2022/01/24 10:19:03;;;;;;;9.27;4.90;;;7.10;1.00;;;;;;10244054;28;84946;-59
2022/01/24 10:24:04;;;;;;;9.98;5.82;;;7.10;1.00;;;;;;10268917;28;85009;-61
2022/01/24 10:29:14;;;;;;;8.98;5.10;;;7.10;1.00;;;;;;10289120;28;85064;-55
2022/01/24 10:39:34;;;;;;;7.32;4.38;;;6.90;1.00;;;;;;10249045;28;84169;-60
2022/01/24 10:44:36;;;;;;;7.72;4.50;;;6.80;1.00;;;;;;10249425;28;84939;-60
2022/01/24 10:49:37;;;;;;;8.77;5.03;;;6.80;1.00;;;;;;10248363;28;84464;-63
2022/01/24 10:54:38;;;;;;;9.13;4.95;;;6.90;1.00;;;;;;10250807;28;84104;-59
2022/01/24 10:59:38;;;;;;;7.57;4.60;;;7.00;1.00;;;;;;10248656;28;85407;-62
2022/01/24 11:04:40;;;;;;;8.43;4.40;;;7.10;1.00;;;;;;10249351;28;85148;-63
2022/01/24 11:09:41;;;;;;;9.35;4.88;;;7.10;1.00;;;;;;10248360;28;84797;-63
2022/01/24 11:14:43;;;;;;;6.72;4.03;;;7.00;1.00;;;;;;10283773;28;84954;-64
2022/01/24 11:19:51;;;;;;;5.13;4.03;;;7.20;1.00;;;;;;10288475;28;84169;-63
2022/01/24 11:24:58;;;;;;;7.78;4.35;;;7.10;1.00;;;;;;10288228;28;85948;-61
2022/01/24 11:30:09;;;;;;;9.27;4.20;;;7.20;1.00;;;;;;10270400;28;84819;-61
2022/01/24 11:35:10;;;;;;;7.13;3.85;;;7.20;1.00;;;;;;10285608;28;84208;-62
2022/01/24 11:40:20;;;;;;;5.07;3.25;;;7.10;1.00;;;;;;10242713;28;86865;-61
2022/01/24 11:45:45;;;;;;;6.30;3.50;;;6.90;1.00;;;;;;10245761;28;84090;-53
2022/01/24 11:51:03;;;;;;;5.93;3.25;;;7.00;1.00;;;;;;10246976;28;84556;-50
2022/01/24 11:56:26;;;;;;;7.65;3.28;;;7.10;1.00;;;;;;10246069;28;84868;-53
2022/01/24 12:01:35;;;;;;;9.20;3.80;;;7.00;1.00;;;;;;10245136;28;84566;-51
2022/01/24 12:07:13;;;;;;;6.72;3.85;;;7.00;1.00;;;;;;10244996;28;84879;-54
2022/01/24 12:12:46;;;;;;;6.15;3.47;;;7.10;1.00;;;;;;10244786;28;85033;-51
2022/01/24 12:17:50;;;;;;;6.95;3.63;;;7.10;1.00;;;;;;10246664;28;85565;-51
2022/01/24 12:22:50;;;;;;;6.03;3.50;;;7.10;1.00;;;;;;10246689;28;86843;-51
2022/01/24 12:28:17;;;;;;;9.80;4.40;;;7.00;1.00;;;;;;10245592;28;85274;-50
2022/01/24 12:33:31;;;;;;;7.20;4.47;;;6.90;1.00;;;;;;10242344;28;84169;-54
2022/01/24 12:38:45;;;;;;;8.25;4.65;;;6.90;1.00;;;;;;10240991;28;84552;-52
2022/01/24 12:43:57;;;;;;;7.22;4.30;;;6.80;1.00;;;;;;10251343;28;84117;-57
2022/01/24 12:49:04;;;;;;;6.30;4.30;;;6.70;1.00;;;;;;10250112;28;84953;-50
2022/01/24 12:54:05;;;;;;;7.25;4.50;;;6.80;1.00;;;;;;10251025;28;84832;-61
2022/01/24 12:59:05;;;;;;;8.88;4.60;;;7.00;1.00;;;;;;10250809;28;84581;-60
2022/01/24 13:04:12;;;;;;;8.05;4.00;;;6.90;1.00;;;;;;10251784;28;84435;-65
2022/01/24 13:09:25;;;;;;;6.40;4.05;;;6.90;1.00;;;;;;10249470;28;84799;-62
2022/01/24 13:14:38;;;;;;;8.60;4.40;;;6.90;1.00;;;;;;10248667;28;85256;-57
2022/01/24 13:25:10;;;;;;;7.45;4.25;;;6.90;1.00;;;;;;10250487;28;84093;-61
2022/01/24 13:30:23;;;;;;;8.70;4.40;;;7.00;1.00;;;;;;10249514;28;84216;-59
2022/01/24 13:35:31;;;;;;;12.23;4.95;;;7.00;1.00;;;;;;10250287;28;85438;-60
2022/01/24 13:40:34;;;;;;;11.43;5.32;;;7.00;1.00;;;;;;10249579;28;84018;-61
2022/01/24 13:45:37;;;;;;;8.13;4.45;;;7.00;1.00;;;;;;10247580;28;84940;-56
2022/01/24 13:50:37;;;;;;;9.73;4.72;;;7.00;1.00;;;;;;10248929;28;84116;-60
2022/01/24 13:55:40;;;;;;;9.02;4.68;;;6.80;1.00;;;;;;10249666;28;84970;-59
2022/01/24 14:00:41;;;;;;;10.32;5.00;;;6.80;1.00;;;;;;10249043;28;84138;-57
2022/01/24 14:05:42;;;;;;;10.52;4.57;;;6.60;1.00;;;;;;10249797;28;85418;-54
2022/01/24 14:10:43;;;;;;;9.93;5.03;;;6.60;1.00;;;;;;10253362;28;84963;-52
2022/01/24 14:20:45;;;;;;;11.70;5.88;;;6.60;1.00;;;;;;10290128;28;84943;-48
2022/01/24 14:25:46;;;;;;;10.45;5.28;;;6.60;1.00;;;;;;10290269;28;84277;-49
2022/01/24 14:30:47;;;;;;;10.10;5.10;;;6.60;1.00;;;;;;10290377;28;84891;-49
2022/01/24 14:35:56;;;;;;;12.27;5.72;;;6.60;1.00;;;;;;10290334;28;84103;-58
2022/01/24 14:41:01;;;;;;;9.32;4.78;;;6.60;1.00;;;;;;10289483;28;84945;-54
2022/01/24 14:46:07;;;;;;;13.75;6.20;;;6.60;1.00;;;;;;10278226;28;84954;-60
2022/01/24 14:51:07;;;;;;;12.52;6.15;;;6.70;1.00;;;;;;10247972;28;84255;-60
2022/01/24 14:56:08;;;;;;;11.30;5.55;;;6.60;1.00;;;;;;10248933;28;84943;-60
2022/01/24 15:01:09;;;;;;;12.60;5.20;;;6.60;1.00;;;;;;10247632;28;84227;-48
2022/01/24 15:06:13;;;;;;;11.20;5.57;;;6.50;1.00;;;;;;10331150;22;84425;-49
2022/01/24 15:11:17;;;;;;;10.43;5.25;;;6.50;1.00;;;;;;10325075;28;85296;-48
2022/01/24 15:16:18;;;;;;;13.55;5.65;;;6.40;1.00;;;;;;10292358;28;85130;-52
2022/01/24 15:26:38;;;;;;;12.50;5.18;;;6.50;1.00;;;;;;10288057;28;84534;-49
2022/01/24 15:31:39;;;;;;;12.55;6.40;;;6.50;1.00;;;;;;10287289;28;84112;-50
2022/01/24 15:36:41;;;;;;;15.70;8.10;;;6.50;1.00;;;;;;10285732;28;84720;-50
2022/01/24 15:41:50;;;;;;;14.65;7.70;;;6.50;1.00;;;;;;10283246;28;85111;-54
2022/01/24 15:47:44;;;;;;;15.18;7.13;;;6.70;1.00;;;;;;10266356;28;84906;-57
2022/01/24 15:52:13;;;;;;;14.98;6.63;;;6.50;1.00;;;;;;10273067;28;86012;-47
2022/01/24 16:02:33;;;;;;;14.70;6.32;;;6.50;1.00;;;;;;10283518;28;84849;-57
2022/01/24 16:07:36;;;;;;;19.23;8.18;;;6.60;1.00;;;;;;10249079;28;84751;-57
2022/01/24 16:12:43;;;;;;;20.20;8.95;;;6.50;1.00;;;;;;10246805;28;84269;-58
2022/01/24 16:17:44;;;;;;;20.42;9.25;;;6.40;1.00;;;;;;10312058;28;84901;-57
2022/01/24 16:28:17;;;;;;;17.95;8.57;;;6.20;1.00;;;;;;10328020;28;84957;-55
2022/01/24 16:33:18;;;;;;;17.63;7.70;;;6.30;1.00;;;;;;10270974;28;84882;-56
2022/01/24 16:38:20;;;;;;;18.38;8.95;;;6.40;1.00;;;;;;10282445;28;86524;-51
2022/01/24 16:48:23;;;;;;;18.80;8.02;;;6.30;1.00;;;;;;10289360;28;84271;-47
2022/01/24 16:53:24;;;;;;;17.38;7.72;;;6.20;1.00;;;;;;10300248;28;85812;-50
2022/01/24 16:58:27;;;;;;;17.48;8.18;;;6.20;1.00;;;;;;10291511;28;84379;-47
2022/01/24 17:03:29;;;;;;;14.50;7.50;;;6.30;1.00;;;;;;10320266;28;87243;-50
2022/01/24 17:08:30;;;;;;;15.10;6.90;;;6.20;1.00;;;;;;10326127;28;85690;-51
2022/01/24 17:13:31;;;;;;;20.02;8.82;;;6.10;1.00;;;;;;10296048;28;84172;-48
2022/01/24 17:18:33;;;;;;;20.30;8.68;;;6.10;1.00;;;;;;10281957;28;84188;-49
2022/01/24 17:23:34;;;;;;;15.82;7.40;;;6.20;1.00;;;;;;10284004;28;84042;-51
2022/01/24 17:28:35;;;;;;;16.10;7.63;;;6.10;1.00;;;;;;10282581;28;84924;-51
2022/01/24 17:33:35;;;;;;;19.45;9.13;;;6.20;1.00;;;;;;10288816;28;84846;-50
2022/01/24 17:38:37;;;;;;;24.25;10.25;;;6.30;1.00;;;;;;10333205;28;84892;-48
2022/01/24 17:43:37;;;;;;;18.38;9.15;;;6.10;1.00;;;;;;10333421;28;86149;-52
2022/01/24 17:48:38;;;;;;;20.45;9.05;;;6.20;1.00;;;;;;10333444;28;85013;-49
2022/01/24 17:53:43;;;;;;;22.30;9.23;;;6.20;1.00;;;;;;10332795;28;86747;-50
2022/01/24 17:58:44;;;;;;;19.45;8.85;;;6.30;1.00;;;;;;10325922;28;86819;-50
2022/01/24 18:03:44;;;;;;;18.30;7.45;;;6.30;1.00;;;;;;10310621;28;84316;-49
2022/01/24 18:08:45;;;;;;;18.20;8.38;;;6.20;1.00;;;;;;10321751;28;84864;-54
2022/01/24 18:13:46;;;;;;;17.05;8.27;;;6.30;1.00;;;;;;10315036;28;84927;-56
2022/01/24 18:18:47;;;;;;;18.27;8.00;;;6.30;1.00;;;;;;10293080;28;84722;-48
2022/01/24 18:23:48;;;;;;;18.50;8.52;;;6.30;1.00;;;;;;10294357;28;84744;-51
2022/01/24 18:28:48;;;;;;;16.20;7.68;;;6.30;1.00;;;;;;10292876;28;86135;-50
2022/01/24 18:33:50;;;;;;;14.93;7.68;;;6.30;1.00;;;;;;10286132;28;84235;-44
2022/01/24 18:38:51;;;;;;;16.17;8.13;;;6.30;1.00;;;;;;10287658;28;84257;-48
2022/01/24 18:43:51;;;;;;;16.02;7.53;;;6.20;1.00;;;;;;10293429;28;84293;-45
2022/01/24 18:48:52;;;;;;;16.60;8.65;;;6.20;1.00;;;;;;10297155;28;84121;-47
2022/01/24 18:53:53;;;;;;;16.55;8.48;;;6.20;1.00;;;;;;10296690;28;84584;-42
2022/01/24 18:58:54;;;;;;;18.92;8.88;;;6.20;1.00;;;;;;10289200;28;87120;-45
2022/01/24 19:03:54;;;;;;;16.85;8.13;;;6.10;1.00;;;;;;10291824;28;84284;-45
2022/01/24 19:08:55;;;;;;;20.05;8.40;;;6.10;1.00;;;;;;10292356;28;84524;-45
2022/01/24 19:13:56;;;;;;;20.45;8.07;;;6.20;1.00;;;;;;10295735;28;84436;-48
2022/01/24 19:19:16;;;;;;;20.42;8.63;;;6.30;1.00;;;;;;10294513;28;84287;-49
2022/01/24 19:24:16;;;;;;;20.33;8.07;;;6.10;1.00;;;;;;10290681;28;84352;-47
2022/01/24 19:29:17;;;;;;;19.73;9.02;;;6.10;1.00;;;;;;10289110;28;84847;-50
2022/01/24 19:34:18;;;;;;;22.33;10.43;;;6.00;1.00;;;;;;10290038;28;84350;-49
2022/01/24 19:39:18;;;;;;;18.05;7.88;;;6.10;1.00;;;;;;10289158;28;84826;-49
2022/01/24 19:44:21;;;;;;;20.10;8.77;;;6.10;1.00;;;;;;10284959;28;86727;-49
2022/01/24 19:49:21;;;;;;;20.52;8.95;;;6.10;1.00;;;;;;10283427;28;85339;-46
2022/01/24 19:54:26;;;;;;;20.98;8.30;;;6.00;1.00;;;;;;10288710;28;84472;-45
2022/01/24 19:59:41;;;;;;;18.00;8.57;;;6.10;1.00;;;;;;10292755;28;84244;-47
2022/01/24 20:04:43;;;;;;;19.38;8.55;;;6.10;1.00;;;;;;10282444;28;84965;-42
2022/01/24 20:09:49;;;;;;;24.77;9.05;;;6.10;1.00;;;;;;10284120;28;84334;-45
2022/01/24 20:14:49;;;;;;;17.95;8.32;;;6.10;1.00;;;;;;10280158;28;84869;-46
2022/01/24 20:19:50;;;;;;;20.40;8.98;;;6.10;1.00;;;;;;10295118;28;84761;-50
2022/01/24 20:24:51;;;;;;;19.60;8.68;;;6.00;1.00;;;;;;10289335;28;84270;-51
2022/01/24 20:29:52;;;;;;;18.08;8.23;;;6.00;1.00;;;;;;10279180;28;85981;-43
2022/01/24 20:34:54;;;;;;;23.42;9.18;;;6.00;1.00;;;;;;10288151;28;84333;-50
2022/01/24 20:39:55;;;;;;;19.15;8.77;;;5.90;1.00;;;;;;10285472;28;84158;-48
2022/01/24 20:44:56;;;;;;;19.15;8.85;;;5.80;1.00;;;;;;10296416;28;85445;-47
2022/01/24 20:49:59;;;;;;;17.38;8.05;;;5.80;1.00;;;;;;10299353;28;85229;-45
2022/01/24 20:55:00;;;;;;;19.67;8.77;;;5.60;1.00;;;;;;10302830;28;84306;-45
2022/01/24 21:00:04;;;;;;;20.90;8.45;;;5.60;1.00;;;;;;10305462;28;85366;-46
2022/01/24 21:05:05;;;;;;;20.25;8.55;;;5.70;1.00;;;;;;10315152;22;84802;-52
2022/01/24 21:10:17;;;;;;;18.25;8.40;;;5.70;1.00;;;;;;10293385;28;85231;-56
2022/01/24 21:15:18;;;;;;;16.10;7.57;;;5.70;1.00;;;;;;10311158;28;86396;-55
2022/01/24 21:20:19;;;;;;;18.58;7.82;;;5.70;1.00;;;;;;10292035;28;86526;-51
2022/01/24 21:25:20;;;;;;;22.00;9.88;;;5.60;1.00;;;;;;10293101;28;84873;-53
2022/01/24 21:30:20;;;;;;;20.05;8.48;;;5.70;1.00;;;;;;10292752;28;84131;-52
2022/01/24 21:35:22;;;;;;;21.58;9.15;;;5.70;1.00;;;;;;10290123;28;84296;-52
2022/01/24 21:40:22;;;;;;;22.08;9.25;;;5.60;1.00;;;;;;10311845;28;84973;-58
2022/01/24 21:45:25;;;;;;;22.20;9.02;;;5.60;1.00;;;;;;10306708;28;84180;-54
2022/01/24 21:50:27;;;;;;;17.83;7.88;;;5.50;1.00;;;;;;10293064;28;84959;-51
2022/01/24 21:55:32;;;;;;;19.80;8.70;;;5.60;1.00;;;;;;10291662;28;84141;-54
2022/01/24 22:00:33;;;;;;;22.70;8.60;;;5.60;1.00;;;;;;10291972;28;84944;-56
2022/01/24 22:05:34;;;;;;;23.55;9.27;;;5.60;1.00;;;;;;10291758;28;84178;-54
2022/01/24 22:10:35;;;;;;;24.45;9.13;;;5.70;1.00;;;;;;10291755;28;84216;-54
2022/01/24 22:15:37;;;;;;;24.98;10.35;;;5.70;1.00;;;;;;10290900;28;84275;-54
2022/01/24 22:20:38;;;;;;;18.45;7.75;;;5.70;1.00;;;;;;10292193;28;84516;-58
2022/01/24 22:25:40;;;;;;;19.58;8.68;;;5.70;1.00;;;;;;10291171;28;84258;-57
2022/01/24 22:30:41;;;;;;;18.60;8.38;;;5.70;1.00;;;;;;10290726;28;85246;-54
2022/01/24 22:35:42;;;;;;;21.00;8.80;;;5.70;1.00;;;;;;10290185;28;84124;-52
2022/01/24 22:41:00;;;;;;;24.13;9.45;;;5.60;1.00;;;;;;10289023;28;84176;-55
2022/01/24 22:46:01;;;;;;;20.65;9.48;;;5.50;1.00;;;;;;10287988;28;85534;-53
2022/01/24 22:51:03;;;;;;;23.67;9.88;;;5.40;1.00;;;;;;10289831;28;84959;-52
2022/01/24 22:56:04;;;;;;;21.15;8.48;;;5.40;1.00;;;;;;10289361;28;84752;-53
2022/01/24 23:01:08;;;;;;;21.60;8.77;;;5.20;6.30;;;;;;10290812;28;83985;-55
2022/01/24 23:06:09;;;;;;;22.58;9.27;;;5.20;28.40;;;;;;10288853;28;84366;-54
2022/01/24 23:11:17;;;;;;;23.77;9.52;;;5.20;38.70;;;;;;10287810;28;85962;-56
2022/01/24 23:21:56;;;;;;;24.23;10.65;;;5.30;14.70;;;;;;10289347;28;84216;-55
2022/01/24 23:27:05;;;;;;;24.88;9.30;;;5.40;1.00;;;;;;10288598;28;84342;-53
2022/01/24 23:32:17;;;;;;;20.27;8.85;;;5.30;1.00;;;;;;10289452;28;84034;-54
2022/01/24 23:42:40;;;;;;;25.40;9.95;;;5.30;3.70;;;;;;10289053;28;84856;-54
2022/01/24 23:47:41;;;;;;;20.50;8.35;;;5.30;22.10;;;;;;10288366;28;84250;-53
2022/01/24 23:52:42;;;;;;;21.60;8.98;;;5.40;1.80;;;;;;10288805;28;84966;-54
2022/01/24 23:57:45;;;;;;;24.38;10.30;;;5.40;1.00;;;;;;10288731;28;84829;-52
